createdAt,value
2022-08-26T00:01:13.471Z,19.87
2022-08-26T00:03:40.654Z,19.86
2022-08-26T00:06:08.790Z,19.83
2022-08-26T00:08:35.996Z,19.83
2022-08-26T00:11:06.009Z,19.77
2022-08-26T00:13:35.654Z,19.73
2022-08-26T00:16:03.624Z,19.76
2022-08-26T00:18:31.153Z,19.75
2022-08-26T00:21:06.821Z,19.67
2022-08-26T00:23:34.192Z,19.60
2022-08-26T00:26:01.953Z,19.57
2022-08-26T00:28:29.022Z,19.49
2022-08-26T00:30:56.180Z,19.45
2022-08-26T00:33:23.256Z,19.45
2022-08-26T00:35:50.592Z,19.45
2022-08-26T00:38:18.826Z,19.44
2022-08-26T00:40:47.955Z,19.41
2022-08-26T00:43:15.750Z,19.39
2022-08-26T00:45:45.203Z,19.40
2022-08-26T00:48:14.801Z,19.40
2022-08-26T00:50:45.539Z,19.38
2022-08-26T00:53:24.180Z,19.36
2022-08-26T00:55:53.762Z,19.31
2022-08-26T00:58:22.505Z,19.28
2022-08-26T01:00:49.682Z,19.29
2022-08-26T01:03:19.605Z,19.26
2022-08-26T01:05:48.058Z,19.27
2022-08-26T01:08:15.211Z,19.28
2022-08-26T01:10:42.548Z,19.27
2022-08-26T01:13:12.761Z,19.24
2022-08-26T01:15:45.225Z,19.22
2022-08-26T01:18:13.339Z,19.15
2022-08-26T01:21:01.994Z,19.11
2022-08-26T01:23:32.442Z,19.13
2022-08-26T01:26:02.925Z,19.05
2022-08-26T01:28:33.933Z,18.97
2022-08-26T01:31:02.998Z,18.93
2022-08-26T01:33:40.004Z,18.86
2022-08-26T01:36:09.782Z,18.79
2022-08-26T01:38:36.811Z,18.80
2022-08-26T01:41:04.380Z,18.84
2022-08-26T01:43:45.924Z,18.83
2022-08-26T01:46:14.235Z,18.80
2022-08-26T01:48:42.392Z,18.74
2022-08-26T01:51:11.180Z,18.73
2022-08-26T01:53:39.066Z,18.74
2022-08-26T01:56:10.411Z,18.74
2022-08-26T01:58:46.709Z,18.74
2022-08-26T02:01:14.594Z,18.74
2022-08-26T02:03:51.410Z,18.76
2022-08-26T02:06:19.754Z,18.76
2022-08-26T02:08:51.670Z,18.73
2022-08-26T02:11:19.067Z,18.74
2022-08-26T02:13:48.808Z,18.72
2022-08-26T02:16:18.378Z,18.64
2022-08-26T02:18:47.082Z,18.64
2022-08-26T02:21:14.395Z,18.66
2022-08-26T02:23:42.603Z,18.64
2022-08-26T02:26:18.031Z,18.59
2022-08-26T02:28:50.392Z,18.59
2022-08-26T02:31:17.658Z,18.60
2022-08-26T02:33:44.790Z,18.58
2022-08-26T02:36:12.096Z,18.51
2022-08-26T02:38:40.504Z,18.47
2022-08-26T02:41:11.221Z,18.45
2022-08-26T02:43:38.351Z,18.46
2022-08-26T02:46:05.985Z,18.47
2022-08-26T02:48:33.373Z,18.46
2022-08-26T02:51:01.816Z,18.41
2022-08-26T02:53:32.082Z,18.33
2022-08-26T02:56:03.587Z,18.28
2022-08-26T02:58:30.604Z,18.24
2022-08-26T03:00:57.690Z,18.26
2022-08-26T03:03:25.307Z,18.22
2022-08-26T03:05:53.413Z,18.22
2022-08-26T03:08:22.223Z,18.23
2022-08-26T03:10:49.353Z,18.22
2022-08-26T03:13:16.738Z,18.22
2022-08-26T03:15:44.382Z,18.22
2022-08-26T03:18:13.267Z,18.22
2022-08-26T03:20:40.305Z,18.20
2022-08-26T03:23:09.039Z,18.15
2022-08-26T03:25:36.247Z,18.13
2022-08-26T03:28:03.996Z,18.12
2022-08-26T03:30:45.440Z,18.09
2022-08-26T03:33:13.395Z,18.11
2022-08-26T03:35:41.720Z,18.11
2022-08-26T03:38:09.429Z,18.10
2022-08-26T03:40:37.129Z,18.09
2022-08-26T03:43:05.166Z,18.11
2022-08-26T03:45:33.502Z,18.10
2022-08-26T03:48:00.617Z,18.11
2022-08-26T03:50:29.372Z,18.06
2022-08-26T03:53:02.247Z,18.04
2022-08-26T03:55:31.979Z,17.98
2022-08-26T03:57:59.308Z,17.97
2022-08-26T04:00:26.349Z,17.97
2022-08-26T04:02:53.619Z,17.98
2022-08-26T04:05:21.832Z,18.00
2022-08-26T04:07:50.618Z,18.00
2022-08-26T04:10:20.390Z,18.01
2022-08-26T04:12:47.637Z,17.99
2022-08-26T04:15:15.711Z,18.01
2022-08-26T04:17:43.116Z,18.03
2022-08-26T04:20:13.860Z,18.05
2022-08-26T04:22:44.093Z,18.04
2022-08-26T04:25:11.397Z,18.04
2022-08-26T04:27:38.862Z,18.00
2022-08-26T04:30:08.939Z,17.98
2022-08-26T04:32:37.311Z,17.98
2022-08-26T04:35:05.035Z,17.97
2022-08-26T04:37:33.581Z,17.97
2022-08-26T04:40:00.841Z,17.95
2022-08-26T04:42:29.277Z,17.96
2022-08-26T04:44:56.381Z,17.95
2022-08-26T04:47:23.441Z,17.95
2022-08-26T04:49:51.723Z,17.96
2022-08-26T04:52:19.390Z,17.95
2022-08-26T04:54:47.053Z,17.93
2022-08-26T04:57:14.080Z,17.94
2022-08-26T04:59:41.116Z,17.92
2022-08-26T05:02:08.192Z,17.94
2022-08-26T05:04:36.225Z,17.97
2022-08-26T05:07:03.752Z,18.01
2022-08-26T05:09:30.801Z,18.08
2022-08-26T05:11:57.856Z,18.11
2022-08-26T05:14:25.014Z,18.15
2022-08-26T05:16:52.196Z,18.19
2022-08-26T05:19:19.768Z,18.23
2022-08-26T05:21:48.692Z,18.27
2022-08-26T05:24:16.591Z,18.34
2022-08-26T05:26:44.438Z,18.42
2022-08-26T05:29:12.109Z,18.48
2022-08-26T05:31:39.202Z,18.57
2022-08-26T05:34:06.984Z,18.67
2022-08-26T05:36:36.202Z,18.78
2022-08-26T05:39:04.919Z,18.89
2022-08-26T05:41:36.133Z,19.03
2022-08-26T05:44:05.052Z,19.20
2022-08-26T05:46:32.209Z,19.34
2022-08-26T05:48:59.588Z,19.42
2022-08-26T05:51:27.281Z,19.51
2022-08-26T05:53:57.598Z,19.68
2022-08-26T05:56:27.438Z,19.83
2022-08-26T05:58:55.496Z,20.06
2022-08-26T06:01:25.528Z,20.07
2022-08-26T06:03:54.697Z,20.02
2022-08-26T06:06:27.918Z,20.16
2022-08-26T06:08:59.122Z,20.20
2022-08-26T06:11:27.162Z,20.34
2022-08-26T06:13:56.378Z,20.46
2022-08-26T06:16:26.088Z,20.45
2022-08-26T06:18:53.691Z,20.59
2022-08-26T06:21:28.451Z,20.98
2022-08-26T06:24:15.640Z,21.18
2022-08-26T06:26:46.907Z,21.32
2022-08-26T06:29:24.416Z,21.33
2022-08-26T06:31:53.115Z,21.43
2022-08-26T06:34:20.706Z,21.59
2022-08-26T06:36:49.246Z,21.82
2022-08-26T06:39:20.150Z,22.08
2022-08-26T06:41:47.620Z,22.10
2022-08-26T06:44:44.814Z,22.29
2022-08-26T06:47:12.230Z,22.47
2022-08-26T06:49:39.788Z,22.74
2022-08-26T06:52:07.028Z,22.75
2022-08-26T06:54:35.383Z,22.59
2022-08-26T06:57:05.937Z,22.67
2022-08-26T06:59:34.223Z,22.74
2022-08-26T07:02:02.351Z,22.99
2022-08-26T07:04:29.702Z,23.11
2022-08-26T07:06:56.790Z,23.16
2022-08-26T07:09:25.561Z,23.26
2022-08-26T07:11:53.474Z,23.25
2022-08-26T07:14:27.377Z,23.29
2022-08-26T07:16:54.925Z,23.56
2022-08-26T07:19:30.607Z,23.75
2022-08-26T07:22:00.083Z,23.84
2022-08-26T07:24:30.403Z,24.13
2022-08-26T07:27:02.682Z,24.08
2022-08-26T07:29:30.188Z,23.86
2022-08-26T07:31:57.276Z,24.05
2022-08-26T07:34:25.393Z,24.42
2022-08-26T07:36:55.670Z,24.43
2022-08-26T07:39:22.781Z,24.62
2022-08-26T07:41:50.336Z,24.45
2022-08-26T07:44:17.590Z,24.58
2022-08-26T07:46:52.380Z,24.75
2022-08-26T07:49:21.706Z,24.55
2022-08-26T07:51:49.830Z,24.53
2022-08-26T07:54:17.031Z,24.56
2022-08-26T07:56:44.624Z,24.59
2022-08-26T07:59:13.616Z,24.99
2022-08-26T08:01:41.309Z,25.03
2022-08-26T08:04:17.196Z,25.07
2022-08-26T08:06:45.310Z,25.27
2022-08-26T08:09:13.649Z,25.34
2022-08-26T08:11:41.443Z,25.15
2022-08-26T08:14:11.803Z,25.23
2022-08-26T08:16:42.361Z,25.05
2022-08-26T08:19:13.582Z,25.01
2022-08-26T08:21:41.976Z,24.98
2022-08-26T08:24:11.142Z,25.21
2022-08-26T08:26:38.590Z,25.64
2022-08-26T08:29:06.043Z,25.86
2022-08-26T08:31:56.185Z,26.15
2022-08-26T08:34:21.620Z,25.81
2022-08-26T08:36:50.322Z,25.53
2022-08-26T08:39:20.639Z,25.52
2022-08-26T08:41:58.073Z,25.63
2022-08-26T08:47:03.793Z,25.19
2022-08-26T08:49:32.777Z,25.53
2022-08-26T08:52:20.124Z,25.80
2022-08-26T08:54:47.581Z,25.51
2022-08-26T08:57:22.124Z,25.83
2022-08-26T08:59:56.829Z,25.41
2022-08-26T09:02:30.572Z,25.58
2022-08-26T09:05:02.953Z,25.73
2022-08-26T09:07:37.550Z,25.89
2022-08-26T09:10:17.183Z,25.71
2022-08-26T09:12:45.723Z,25.57
2022-08-26T09:15:24.648Z,25.85
2022-08-26T09:18:10.916Z,26.09
2022-08-26T09:20:47.525Z,26.21
2022-08-26T09:23:16.156Z,26.45
2022-08-26T09:25:47.443Z,26.25
2022-08-26T09:28:22.189Z,26.36
2022-08-26T09:31:11.212Z,26.50
2022-08-26T09:33:40.267Z,26.27
2022-08-26T09:36:22.988Z,26.28
2022-08-26T09:38:52.689Z,26.03
2022-08-26T09:41:33.264Z,25.88
2022-08-26T09:44:14.555Z,25.74
2022-08-26T09:46:45.717Z,25.61
2022-08-26T09:49:26.692Z,25.87
2022-08-26T09:52:11.714Z,25.94
2022-08-26T09:54:39.714Z,26.04
2022-08-26T09:57:11.274Z,26.11
2022-08-26T09:59:38.453Z,26.26
2022-08-26T10:02:17.355Z,26.29
2022-08-26T10:04:56.343Z,26.30
2022-08-26T10:07:36.306Z,26.16
2022-08-26T10:10:05.722Z,26.11
2022-08-26T10:12:34.766Z,26.11
2022-08-26T10:15:08.288Z,25.78
2022-08-26T10:17:35.699Z,25.90
2022-08-26T10:20:22.844Z,25.74
2022-08-26T10:22:53.427Z,25.83
2022-08-26T10:25:23.411Z,25.73
2022-08-26T10:27:54.113Z,25.72
2022-08-26T10:30:26.404Z,25.85
2022-08-26T10:33:00.781Z,25.91
2022-08-26T10:35:28.085Z,25.93
2022-08-26T10:37:57.348Z,25.61
2022-08-26T10:40:27.303Z,25.53
2022-08-26T10:43:14.153Z,25.52
2022-08-26T10:45:48.923Z,25.53
2022-08-26T10:48:20.973Z,25.55
2022-08-26T10:50:48.331Z,25.49
2022-08-26T10:53:32.767Z,25.36
2022-08-26T10:56:02.944Z,25.02
2022-08-26T10:58:50.081Z,24.78
2022-08-26T11:01:35.820Z,24.59
2022-08-26T11:04:13.989Z,24.45
2022-08-26T11:06:41.855Z,24.53
2022-08-26T11:09:09.255Z,24.38
2022-08-26T11:11:39.360Z,24.38
2022-08-26T11:14:07.662Z,24.43
2022-08-26T11:16:42.897Z,24.42
2022-08-26T11:19:12.685Z,24.39
2022-08-26T11:21:47.809Z,24.40
2022-08-26T11:24:35.297Z,24.42
2022-08-26T11:27:02.917Z,24.39
2022-08-26T11:29:49.726Z,24.25
2022-08-26T11:32:24.907Z,24.38
2022-08-26T11:34:57.834Z,24.48
2022-08-26T11:37:32.321Z,24.45
2022-08-26T11:40:00.854Z,24.28
2022-08-26T11:42:41.682Z,24.29
2022-08-26T11:45:19.310Z,24.27
2022-08-26T11:47:46.841Z,24.43
2022-08-26T11:50:21.199Z,24.55
2022-08-26T11:53:06.061Z,24.37
2022-08-26T11:55:35.841Z,24.22
2022-08-26T11:58:05.759Z,24.18
2022-08-26T12:00:54.468Z,24.16
2022-08-26T12:03:25.131Z,24.21
2022-08-26T12:05:53.116Z,24.31
2022-08-26T12:08:23.192Z,24.12
2022-08-26T12:11:03.644Z,24.14
2022-08-26T12:13:30.911Z,24.09
2022-08-26T12:15:59.870Z,24.17
2022-08-26T12:18:31.519Z,24.32
2022-08-26T12:21:12.208Z,24.42
2022-08-26T12:23:41.817Z,24.61
2022-08-26T12:26:12.845Z,24.84
2022-08-26T12:28:47.356Z,25.01
2022-08-26T12:31:20.703Z,25.35
2022-08-26T12:33:48.750Z,25.40
2022-08-26T12:36:21.607Z,25.34
2022-08-26T12:38:49.712Z,25.50
2022-08-26T12:41:35.810Z,25.34
2022-08-26T12:44:02.906Z,25.31
2022-08-26T12:46:30.220Z,25.30
2022-08-26T12:49:01.143Z,25.40
2022-08-26T12:51:30.190Z,25.38
2022-08-26T12:53:57.961Z,25.26
2022-08-26T12:56:35.572Z,25.02
2022-08-26T12:59:05.319Z,25.00
2022-08-26T13:01:38.098Z,24.96
2022-08-26T13:04:06.565Z,24.74
2022-08-26T13:06:34.913Z,24.73
2022-08-26T13:09:06.086Z,24.97
2022-08-26T13:11:39.210Z,25.06
2022-08-26T13:14:07.764Z,25.20
2022-08-26T13:16:35.536Z,25.25
2022-08-26T13:19:05.637Z,25.32
2022-08-26T13:21:41.680Z,25.32
2022-08-26T13:24:11.714Z,25.34
2022-08-26T13:26:39.301Z,25.27
2022-08-26T13:29:10.203Z,25.12
2022-08-26T13:31:39.325Z,25.02
2022-08-26T13:34:07.477Z,25.03
2022-08-26T13:36:34.592Z,25.10
2022-08-26T13:39:01.780Z,25.17
2022-08-26T13:41:29.833Z,25.15
2022-08-26T13:43:57.380Z,25.12
2022-08-26T13:46:26.501Z,25.13
2022-08-26T13:48:54.546Z,25.05
2022-08-26T13:51:22.839Z,25.10
2022-08-26T13:53:50.421Z,25.22
2022-08-26T13:56:18.735Z,25.19
2022-08-26T13:58:46.215Z,25.12
2022-08-26T14:01:13.912Z,25.23
2022-08-26T14:03:41.631Z,25.23
2022-08-26T14:06:08.911Z,25.17
2022-08-26T14:08:36.864Z,25.08
2022-08-26T14:11:03.896Z,25.01
2022-08-26T14:13:30.980Z,25.03
2022-08-26T14:15:59.690Z,25.08
2022-08-26T14:18:29.907Z,24.96
2022-08-26T14:21:01.176Z,24.80
2022-08-26T14:23:28.271Z,24.91
2022-08-26T14:25:55.359Z,24.89
2022-08-26T14:28:23.158Z,24.95
2022-08-26T14:30:53.007Z,24.92
2022-08-26T14:33:23.480Z,24.86
2022-08-26T14:35:50.513Z,24.91
2022-08-26T14:38:17.759Z,24.95
2022-08-26T14:40:45.105Z,25.06
2022-08-26T14:43:15.106Z,24.94
2022-08-26T14:48:21.534Z,24.73
2022-08-26T14:52:02.831Z,24.59
2022-08-26T14:54:30.165Z,24.51
2022-08-26T14:56:59.437Z,24.58
2022-08-26T14:59:28.023Z,24.65
2022-08-26T15:01:55.590Z,24.69
2022-08-26T15:04:23.329Z,24.80
2022-08-26T15:06:50.946Z,24.81
2022-08-26T15:09:18.039Z,24.63
2022-08-26T15:11:45.074Z,24.70
2022-08-26T15:14:19.620Z,24.75
2022-08-26T15:16:47.909Z,24.94
2022-08-26T15:19:15.979Z,25.01
2022-08-26T15:21:43.888Z,25.05
2022-08-26T15:24:11.191Z,24.96
2022-08-26T15:26:40.695Z,24.97
2022-08-26T15:29:07.742Z,24.75
2022-08-26T15:31:35.138Z,24.88
2022-08-26T15:34:13.313Z,24.88
2022-08-26T15:36:44.902Z,24.89
2022-08-26T15:39:12.611Z,24.73
2022-08-26T15:41:39.705Z,24.54
2022-08-26T15:44:07.567Z,24.11
2022-08-26T15:46:38.584Z,23.83
2022-08-26T15:49:06.189Z,23.43
2022-08-26T15:51:45.692Z,23.22
2022-08-26T15:54:14.068Z,23.21
2022-08-26T15:56:41.091Z,22.98
2022-08-26T15:59:11.820Z,22.91
2022-08-26T16:01:39.494Z,22.64
2022-08-26T16:04:06.771Z,22.51
2022-08-26T16:06:34.797Z,22.36
2022-08-26T16:09:06.194Z,22.33
2022-08-26T16:11:33.930Z,22.20
2022-08-26T16:14:00.932Z,22.04
2022-08-26T16:16:28.021Z,21.89
2022-08-26T16:18:55.211Z,21.82
2022-08-26T16:21:24.326Z,21.66
2022-08-26T16:23:51.816Z,21.60
2022-08-26T16:26:20.531Z,21.61
2022-08-26T16:28:47.858Z,21.65
2022-08-26T16:31:15.299Z,21.64
2022-08-26T16:33:42.395Z,21.65
2022-08-26T16:36:10.106Z,21.63
2022-08-26T16:38:37.620Z,21.63
2022-08-26T16:41:05.467Z,21.54
2022-08-26T16:43:32.533Z,21.49
2022-08-26T16:45:59.722Z,21.45
2022-08-26T16:48:27.458Z,21.41
2022-08-26T16:50:55.584Z,21.42
2022-08-26T16:53:23.021Z,21.37
2022-08-26T16:55:50.828Z,21.39
2022-08-26T16:58:18.400Z,21.38
2022-08-26T17:00:45.447Z,21.38
2022-08-26T17:03:12.663Z,21.31
2022-08-26T17:05:40.273Z,21.24
2022-08-26T17:08:07.765Z,21.19
2022-08-26T17:10:35.095Z,21.09
2022-08-26T17:13:02.496Z,21.07
2022-08-26T17:15:29.764Z,20.86
2022-08-26T17:17:57.058Z,20.75
2022-08-26T17:20:24.866Z,20.71
2022-08-26T17:22:53.454Z,20.72
2022-08-26T17:25:22.549Z,20.71
2022-08-26T17:27:49.653Z,20.72
2022-08-26T17:30:17.752Z,20.67
2022-08-26T17:32:45.504Z,20.67
2022-08-26T17:35:13.320Z,20.63
2022-08-26T17:37:40.921Z,20.60
2022-08-26T17:40:11.246Z,20.60
2022-08-26T17:42:39.067Z,20.58
2022-08-26T17:45:07.128Z,20.64
2022-08-26T17:47:34.347Z,20.69
2022-08-26T17:50:01.698Z,20.71
2022-08-26T17:52:29.340Z,20.72
2022-08-26T17:54:56.893Z,20.64
2022-08-26T17:57:24.507Z,20.41
2022-08-26T17:59:52.777Z,20.42
2022-08-26T18:02:21.029Z,20.52
2022-08-26T18:04:48.608Z,20.62
2022-08-26T18:07:16.111Z,20.52
2022-08-26T18:09:43.193Z,20.19
2022-08-26T18:12:10.339Z,20.01
2022-08-26T18:14:37.541Z,19.99
2022-08-26T18:17:04.979Z,20.11
2022-08-26T18:19:34.412Z,20.24
2022-08-26T18:22:01.731Z,20.24
2022-08-26T18:24:30.415Z,20.11
2022-08-26T18:26:59.453Z,20.06
2022-08-26T18:29:27.920Z,20.00
2022-08-26T18:31:55.073Z,20.07
2022-08-26T18:34:22.270Z,20.08
2022-08-26T18:36:52.079Z,20.09
2022-08-26T18:39:19.476Z,20.08
2022-08-26T18:41:53.073Z,20.08
2022-08-26T18:44:23.894Z,20.06
2022-08-26T18:46:51.656Z,20.01
2022-08-26T18:49:20.289Z,19.91
2022-08-26T18:51:47.806Z,19.76
2022-08-26T18:54:14.930Z,19.72
2022-08-26T18:56:42.457Z,19.57
2022-08-26T18:59:10.226Z,19.61
2022-08-26T19:01:39.232Z,19.63
2022-08-26T19:04:06.966Z,19.61
2022-08-26T19:06:35.530Z,19.27
2022-08-26T19:09:04.421Z,19.27
2022-08-26T19:11:38.287Z,19.28
2022-08-26T19:14:13.531Z,19.20
2022-08-26T19:16:42.031Z,19.22
2022-08-26T19:19:09.713Z,19.34
2022-08-26T19:21:37.185Z,19.41
2022-08-26T19:24:06.039Z,19.44
2022-08-26T19:26:33.155Z,19.34
2022-08-26T19:29:00.322Z,19.15
2022-08-26T19:31:27.518Z,19.22
2022-08-26T19:33:56.595Z,19.31
2022-08-26T19:36:24.756Z,19.31
2022-08-26T19:38:52.447Z,19.27
2022-08-26T19:41:24.545Z,19.20
2022-08-26T19:43:55.450Z,19.23
2022-08-26T19:46:26.509Z,19.23
2022-08-26T19:48:55.745Z,19.15
2022-08-26T19:51:24.556Z,19.11
2022-08-26T19:53:52.749Z,19.05
2022-08-26T19:56:20.849Z,19.05
2022-08-26T19:58:48.515Z,19.08
2022-08-26T20:01:16.232Z,19.13
2022-08-26T20:03:44.036Z,19.15
2022-08-26T20:06:12.192Z,19.18
2022-08-26T20:08:39.981Z,19.21
2022-08-26T20:11:09.074Z,19.17
2022-08-26T20:13:36.500Z,19.12
2022-08-26T20:16:04.073Z,19.02
2022-08-26T20:18:50.031Z,18.99
2022-08-26T20:21:26.191Z,18.93
2022-08-26T20:24:00.975Z,18.97
2022-08-26T20:26:28.677Z,18.99
2022-08-26T20:28:56.395Z,18.98
2022-08-26T20:31:24.110Z,19.01
2022-08-26T20:33:51.680Z,19.02
2022-08-26T20:36:20.372Z,19.05
2022-08-26T20:38:47.764Z,19.04
2022-08-26T20:41:14.858Z,19.07
2022-08-26T20:43:45.038Z,19.10
2022-08-26T20:46:18.012Z,19.13
2022-08-26T20:48:47.222Z,19.15
2022-08-26T20:51:14.873Z,19.16
2022-08-26T20:53:41.977Z,19.07
2022-08-26T20:56:09.759Z,19.01
2022-08-26T20:58:37.447Z,19.03
2022-08-26T21:01:07.959Z,19.04
2022-08-26T21:03:35.973Z,19.05
2022-08-26T21:06:03.846Z,19.04
2022-08-26T21:08:33.063Z,18.92
2022-08-26T21:11:00.905Z,18.93
2022-08-26T21:13:42.831Z,18.88
2022-08-26T21:16:15.678Z,18.87
2022-08-26T21:18:42.971Z,18.86
2022-08-26T21:21:10.267Z,18.84
2022-08-26T21:23:37.743Z,18.82
2022-08-26T21:26:09.374Z,18.85
2022-08-26T21:28:37.289Z,18.77
2022-08-26T21:31:06.985Z,18.76
2022-08-26T21:33:35.733Z,18.75
2022-08-26T21:36:03.953Z,18.70
2022-08-26T21:38:31.170Z,18.62
2022-08-26T21:41:02.170Z,18.62
2022-08-26T21:43:35.180Z,18.64
2022-08-26T21:46:11.318Z,18.59
2022-08-26T21:48:39.079Z,18.58
2022-08-26T21:51:06.705Z,18.58
2022-08-26T21:53:34.191Z,18.58
2022-08-26T21:56:05.938Z,18.59
2022-08-26T21:58:33.072Z,18.61
2022-08-26T22:01:00.374Z,18.60
2022-08-26T22:03:27.846Z,18.60
2022-08-26T22:06:01.264Z,18.59
2022-08-26T22:08:30.153Z,18.56
2022-08-26T22:10:57.415Z,18.54
2022-08-26T22:13:26.354Z,18.55
2022-08-26T22:15:54.044Z,18.52
2022-08-26T22:18:21.493Z,18.55
2022-08-26T22:20:48.581Z,18.53
2022-08-26T22:23:15.681Z,18.50
2022-08-26T22:25:42.788Z,18.49
2022-08-26T22:28:10.045Z,18.48
2022-08-26T22:30:37.393Z,18.47
2022-08-26T22:33:04.615Z,18.43
2022-08-26T22:35:31.721Z,18.44
2022-08-26T22:37:59.173Z,18.41
2022-08-26T22:40:26.404Z,18.42
2022-08-26T22:42:55.617Z,18.41
2022-08-26T22:45:27.396Z,18.38
2022-08-26T22:47:54.718Z,18.37
2022-08-26T22:50:21.761Z,18.37
2022-08-26T22:52:48.847Z,18.31
2022-08-26T22:55:15.980Z,18.32
2022-08-26T22:57:43.069Z,18.24
2022-08-26T23:00:13.424Z,18.24
2022-08-26T23:02:41.250Z,18.24
2022-08-26T23:05:08.850Z,18.23
2022-08-26T23:07:36.565Z,18.23
2022-08-26T23:10:04.667Z,18.27
2022-08-26T23:12:32.516Z,18.30
2022-08-26T23:15:01.145Z,18.34
2022-08-26T23:17:28.289Z,18.32
2022-08-26T23:19:55.357Z,18.28
2022-08-26T23:22:22.383Z,18.24
2022-08-26T23:24:49.889Z,18.22
2022-08-26T23:27:17.092Z,18.19
2022-08-26T23:29:44.114Z,18.17
2022-08-26T23:32:11.251Z,18.18
2022-08-26T23:34:56.984Z,18.21
2022-08-26T23:37:25.654Z,18.22
2022-08-26T23:39:53.920Z,18.22
2022-08-26T23:42:21.027Z,18.20
2022-08-26T23:44:48.153Z,18.16
2022-08-26T23:47:16.030Z,18.14
2022-08-26T23:49:43.144Z,18.15
2022-08-26T23:52:29.464Z,18.15
2022-08-26T23:54:56.776Z,18.12
2022-08-26T23:57:25.205Z,18.05
2022-08-26T23:59:53.245Z,18.00
